Time;durP1;ratioP1;P1;durP2;ratioP2;P2;SDS_P1;SDS_P2;PMS_P1;PMS_P2;Temp;Humidity;BMP_temperature;BMP_pressure;BME280_temperature;BME280_humidity;BME280_pressure;Samples;Min_cycle;Max_cycle;Signal;HPM_P1;HPM_P2
2021/12/10 00:02:35;;;;;;;3.03;2.83;;;;;;;;;;5072323;28;20680;-65
2021/12/10 00:05:27;;;;;;;2.97;2.87;;;;;;;;;;5084109;28;20254;-64
2021/12/10 00:08:14;;;;;;;2.60;2.50;;;;;;;;;;5088830;28;20743;-64
2021/12/10 00:11:09;;;;;;;3.10;2.90;;;;;;;;;;5088758;28;20234;-64
2021/12/10 00:13:56;;;;;;;3.07;2.87;;;;;;;;;;5089305;28;20250;-64
2021/12/10 00:16:44;;;;;;;2.67;2.50;;;;;;;;;;5089042;28;20569;-64
2021/12/10 00:19:35;;;;;;;2.90;2.70;;;;;;;;;;5089455;28;20337;-65
2021/12/10 00:22:27;;;;;;;2.70;2.50;;;;;;;;;;5090118;28;20203;-65
2021/12/10 00:25:20;;;;;;;2.47;2.37;;;;;;;;;;5088140;28;20198;-64
2021/12/10 00:28:15;;;;;;;2.53;2.40;;;;;;;;;;5089792;28;20200;-64
2021/12/10 00:31:17;;;;;;;2.30;2.20;;;;;;;;;;5089319;28;20286;-64
2021/12/10 00:34:08;;;;;;;2.33;2.23;;;;;;;;;;5089637;28;20707;-64
2021/12/10 00:37:00;;;;;;;2.33;2.23;;;;;;;;;;5090061;28;20695;-64
2021/12/10 00:39:52;;;;;;;2.40;2.30;;;;;;;;;;5066380;28;20244;-64
2021/12/10 00:42:39;;;;;;;2.53;2.43;;;;;;;;;;5089028;28;20202;-64
2021/12/10 00:45:28;;;;;;;2.20;2.10;;;;;;;;;;5090011;28;20243;-65
2021/12/10 00:48:15;;;;;;;2.00;1.90;;;;;;;;;;5089061;28;20228;-64
2021/12/10 00:51:04;;;;;;;2.10;2.00;;;;;;;;;;5089405;28;20246;-64
2021/12/10 00:53:52;;;;;;;2.17;2.07;;;;;;;;;;5090074;28;20281;-64
2021/12/10 00:56:41;;;;;;;2.10;2.00;;;;;;;;;;5088794;28;20202;-65
2021/12/10 00:59:28;;;;;;;2.20;2.10;;;;;;;;;;5089041;28;20203;-65
2021/12/10 01:02:20;;;;;;;1.70;1.60;;;;;;;;;;5088821;28;20198;-66
2021/12/10 01:05:08;;;;;;;2.00;1.90;;;;;;;;;;5092132;28;20783;-65
2021/12/10 01:07:56;;;;;;;1.90;1.80;;;;;;;;;;5093803;28;20286;-65
2021/12/10 01:10:47;;;;;;;2.00;1.90;;;;;;;;;;5079708;28;20211;-64
2021/12/10 01:13:36;;;;;;;1.77;1.70;;;;;;;;;;5072616;28;20261;-65
2021/12/10 01:25:53;;;;;;;2.10;2.00;;;;;;;;;;5111787;28;20206;-64
2021/12/10 01:28:45;;;;;;;1.87;1.73;;;;;;;;;;5113601;28;20201;-64
2021/12/10 01:31:32;;;;;;;2.30;2.20;;;;;;;;;;5112679;28;20210;-64
2021/12/10 01:34:19;;;;;;;2.30;2.20;;;;;;;;;;5112082;28;20757;-64
2021/12/10 01:37:08;;;;;;;2.40;2.30;;;;;;;;;;5112994;28;20746;-64
2021/12/10 01:39:56;;;;;;;2.37;2.27;;;;;;;;;;5097006;28;20285;-64
2021/12/10 01:42:46;;;;;;;2.27;2.17;;;;;;;;;;5108187;28;20206;-64
2021/12/10 01:45:40;;;;;;;2.47;2.37;;;;;;;;;;5107900;28;20201;-64
2021/12/10 01:48:30;;;;;;;2.17;2.07;;;;;;;;;;5092185;28;20218;-64
2021/12/10 01:51:20;;;;;;;2.70;2.60;;;;;;;;;;5109003;28;20297;-64
2021/12/10 01:54:14;;;;;;;2.63;2.53;;;;;;;;;;5112972;28;20237;-64
2021/12/10 01:57:02;;;;;;;3.03;2.83;;;;;;;;;;5111866;28;20194;-65
2021/12/10 01:59:50;;;;;;;3.40;3.20;;;;;;;;;;5113555;28;20280;-65
2021/12/10 02:02:41;;;;;;;2.93;2.80;;;;;;;;;;5110208;28;20289;-65
2021/12/10 02:05:28;;;;;;;3.40;3.10;;;;;;;;;;5108380;28;20302;-64
2021/12/10 02:08:15;;;;;;;3.17;2.97;;;;;;;;;;5112579;28;20316;-64
2021/12/10 02:11:04;;;;;;;3.27;3.07;;;;;;;;;;5111551;28;20271;-65
2021/12/10 02:13:51;;;;;;;3.70;3.50;;;;;;;;;;5093761;28;20284;-64
2021/12/10 02:16:39;;;;;;;3.73;3.50;;;;;;;;;;5107087;28;20206;-64
2021/12/10 02:19:26;;;;;;;3.50;3.30;;;;;;;;;;5112997;28;20205;-65
2021/12/10 02:22:15;;;;;;;4.07;3.77;;;;;;;;;;5111695;28;20198;-65
2021/12/10 02:25:02;;;;;;;3.67;3.37;;;;;;;;;;5111524;28;20274;-65
2021/12/10 02:27:50;;;;;;;4.33;4.03;;;;;;;;;;5111473;28;20756;-65
2021/12/10 02:30:39;;;;;;;3.73;3.50;;;;;;;;;;5111215;28;20241;-64
2021/12/10 02:33:26;;;;;;;4.40;4.00;;;;;;;;;;5111585;28;20202;-65
2021/12/10 02:36:13;;;;;;;4.30;4.00;;;;;;;;;;5111125;28;20225;-66
2021/12/10 02:39:02;;;;;;;4.73;4.40;;;;;;;;;;5111526;28;20286;-64
2021/12/10 02:41:49;;;;;;;4.50;4.10;;;;;;;;;;5091110;28;20304;-64
2021/12/10 02:44:37;;;;;;;5.10;4.70;;;;;;;;;;5091414;28;20247;-64
2021/12/10 02:47:23;;;;;;;5.23;4.83;;;;;;;;;;5089595;28;20256;-64
2021/12/10 02:50:13;;;;;;;4.90;4.50;;;;;;;;;;5101026;28;20323;-64
2021/12/10 02:53:01;;;;;;;5.47;5.07;;;;;;;;;;5110795;28;20206;-64
2021/12/10 02:55:49;;;;;;;5.30;4.90;;;;;;;;;;5111913;28;20308;-64
2021/12/10 02:58:36;;;;;;;5.00;4.60;;;;;;;;;;5111926;28;20802;-64
2021/12/10 03:01:28;;;;;;;5.60;5.20;;;;;;;;;;5109687;28;20201;-64
2021/12/10 03:04:15;;;;;;;5.40;5.00;;;;;;;;;;5107259;28;20773;-64
2021/12/10 03:07:08;;;;;;;5.37;4.97;;;;;;;;;;5111188;28;20243;-64
2021/12/10 03:09:55;;;;;;;5.43;5.03;;;;;;;;;;5105363;28;20256;-65
2021/12/10 03:12:43;;;;;;;6.07;5.63;;;;;;;;;;5091283;28;20351;-64
2021/12/10 03:15:32;;;;;;;5.50;5.10;;;;;;;;;;5090280;28;20344;-64
2021/12/10 03:18:19;;;;;;;5.60;5.20;;;;;;;;;;5089578;28;20282;-64
2021/12/10 03:21:09;;;;;;;5.40;5.00;;;;;;;;;;5090604;28;20735;-64
2021/12/10 03:23:56;;;;;;;5.60;5.20;;;;;;;;;;5090327;28;20206;-65
2021/12/10 03:26:43;;;;;;;5.90;5.50;;;;;;;;;;5089654;28;20231;-65
2021/12/10 03:29:34;;;;;;;5.83;5.43;;;;;;;;;;5088966;28;20295;-64
2021/12/10 03:32:23;;;;;;;6.40;5.80;;;;;;;;;;5090657;28;20211;-65
2021/12/10 03:35:14;;;;;;;6.10;5.60;;;;;;;;;;5089648;28;20222;-64
2021/12/10 03:38:04;;;;;;;5.77;5.37;;;;;;;;;;5091256;28;20205;-64
2021/12/10 03:40:51;;;;;;;5.87;5.37;;;;;;;;;;5103649;28;20268;-64
2021/12/10 03:43:39;;;;;;;6.33;5.83;;;;;;;;;;5110334;28;20258;-64
2021/12/10 03:46:27;;;;;;;6.47;5.90;;;;;;;;;;5109233;28;20279;-64
2021/12/10 03:49:16;;;;;;;7.13;6.53;;;;;;;;;;5110680;28;20285;-64
2021/12/10 03:52:04;;;;;;;6.93;6.33;;;;;;;;;;5110018;28;20206;-64
2021/12/10 03:54:51;;;;;;;6.27;5.77;;;;;;;;;;5110113;28;20229;-64
2021/12/10 03:57:38;;;;;;;6.67;6.17;;;;;;;;;;5110411;28;20233;-64
2021/12/10 04:00:37;;;;;;;7.07;6.47;;;;;;;;;;5109527;28;20233;-65
2021/12/10 04:03:28;;;;;;;6.70;6.10;;;;;;;;;;5105936;28;20209;-65
2021/12/10 04:06:15;;;;;;;6.47;5.97;;;;;;;;;;5108613;28;20293;-64
2021/12/10 04:09:05;;;;;;;6.83;6.13;;;;;;;;;;5109211;28;20198;-64
2021/12/10 04:11:52;;;;;;;6.73;6.13;;;;;;;;;;5089670;28;20410;-65
2021/12/10 04:14:41;;;;;;;6.70;6.20;;;;;;;;;;5090006;28;20210;-64
2021/12/10 04:17:28;;;;;;;7.00;6.40;;;;;;;;;;5089377;28;20567;-64
2021/12/10 04:20:20;;;;;;;6.50;5.90;;;;;;;;;;5090338;28;20296;-64
2021/12/10 04:23:11;;;;;;;7.10;6.50;;;;;;;;;;5088776;28;20624;-64
2021/12/10 04:25:58;;;;;;;6.67;6.10;;;;;;;;;;5088706;28;20226;-65
2021/12/10 04:28:45;;;;;;;6.13;5.63;;;;;;;;;;5089919;28;20289;-64
2021/12/10 04:31:32;;;;;;;6.87;6.27;;;;;;;;;;5088826;28;20282;-65
2021/12/10 04:34:20;;;;;;;7.60;7.00;;;;;;;;;;5090534;28;20202;-63
2021/12/10 04:37:11;;;;;;;6.67;6.07;;;;;;;;;;5091397;28;20243;-64
2021/12/10 04:40:02;;;;;;;7.47;6.87;;;;;;;;;;5098735;28;20621;-65
2021/12/10 04:42:50;;;;;;;6.87;6.27;;;;;;;;;;5105182;28;20198;-64
2021/12/10 04:45:37;;;;;;;6.93;6.27;;;;;;;;;;5093325;28;20284;-65
2021/12/10 04:48:25;;;;;;;6.80;6.20;;;;;;;;;;5094313;28;20236;-64
2021/12/10 04:51:13;;;;;;;6.73;6.13;;;;;;;;;;5111852;28;20939;-64
2021/12/10 04:54:04;;;;;;;7.03;6.33;;;;;;;;;;5114000;28;20198;-64
2021/12/10 04:56:57;;;;;;;7.17;6.47;;;;;;;;;;5112775;28;20350;-65
2021/12/10 04:59:44;;;;;;;6.03;5.53;;;;;;;;;;5114608;28;20240;-65
2021/12/10 05:02:33;;;;;;;6.87;6.37;;;;;;;;;;5112239;28;20278;-64
2021/12/10 05:05:20;;;;;;;7.43;6.73;;;;;;;;;;5112493;28;20329;-64
2021/12/10 05:08:08;;;;;;;6.40;5.87;;;;;;;;;;5113085;28;20202;-65
2021/12/10 05:10:56;;;;;;;6.70;6.10;;;;;;;;;;5100146;28;20635;-64
2021/12/10 05:13:47;;;;;;;6.90;6.30;;;;;;;;;;5094297;28;20347;-65
2021/12/10 05:16:37;;;;;;;7.17;6.57;;;;;;;;;;5091806;28;20315;-65
2021/12/10 05:19:27;;;;;;;6.83;6.23;;;;;;;;;;5092565;28;20194;-64
2021/12/10 05:22:14;;;;;;;7.50;6.80;;;;;;;;;;5092800;28;20198;-64
2021/12/10 05:25:01;;;;;;;7.53;6.83;;;;;;;;;;5091636;28;20743;-64
2021/12/10 05:27:49;;;;;;;6.40;5.90;;;;;;;;;;5092794;28;20263;-64
2021/12/10 05:30:37;;;;;;;7.13;6.43;;;;;;;;;;5093040;28;20210;-64
2021/12/10 05:33:25;;;;;;;7.17;6.57;;;;;;;;;;5111425;28;20689;-64
2021/12/10 05:36:12;;;;;;;6.73;6.20;;;;;;;;;;5112510;28;20701;-64
2021/12/10 05:39:00;;;;;;;6.43;5.93;;;;;;;;;;5112196;28;20202;-65
2021/12/10 05:41:47;;;;;;;6.60;6.00;;;;;;;;;;5110954;28;20282;-65
2021/12/10 05:44:36;;;;;;;6.30;5.80;;;;;;;;;;5112237;28;20278;-65
2021/12/10 05:47:23;;;;;;;6.53;5.97;;;;;;;;;;5111494;28;20585;-64
2021/12/10 05:50:14;;;;;;;6.70;6.10;;;;;;;;;;5111757;28;20266;-65
2021/12/10 05:53:01;;;;;;;6.63;6.13;;;;;;;;;;5112318;28;20278;-65
2021/12/10 05:55:49;;;;;;;7.03;6.33;;;;;;;;;;5111266;28;20286;-64
2021/12/10 05:58:36;;;;;;;6.73;6.20;;;;;;;;;;5112547;28;20230;-64
2021/12/10 06:01:25;;;;;;;6.80;6.23;;;;;;;;;;5112388;28;20209;-64
2021/12/10 06:04:13;;;;;;;6.97;6.37;;;;;;;;;;5110589;28;20278;-64
2021/12/10 06:06:59;;;;;;;6.50;6.00;;;;;;;;;;5111052;28;20683;-64
2021/12/10 06:09:46;;;;;;;7.20;6.57;;;;;;;;;;5111073;28;20666;-65
2021/12/10 06:12:33;;;;;;;7.20;6.60;;;;;;;;;;5111563;28;20675;-64
2021/12/10 06:15:22;;;;;;;7.00;6.40;;;;;;;;;;5111927;28;20205;-64
2021/12/10 06:18:11;;;;;;;6.97;6.27;;;;;;;;;;5110925;28;20289;-64
2021/12/10 06:20:58;;;;;;;7.47;6.77;;;;;;;;;;5111051;28;20238;-65
2021/12/10 06:23:45;;;;;;;6.80;6.20;;;;;;;;;;5111609;28;20302;-64
2021/12/10 06:26:32;;;;;;;7.47;6.77;;;;;;;;;;5110780;28;20335;-64
2021/12/10 06:29:22;;;;;;;6.93;6.33;;;;;;;;;;5110458;28;20335;-65
2021/12/10 06:32:09;;;;;;;7.23;6.57;;;;;;;;;;5111096;28;20206;-65
2021/12/10 06:34:57;;;;;;;7.13;6.53;;;;;;;;;;5110459;28;20217;-64
2021/12/10 06:37:46;;;;;;;6.80;6.20;;;;;;;;;;5110547;28;20275;-64
2021/12/10 06:40:35;;;;;;;6.50;5.97;;;;;;;;;;5110319;28;20213;-64
2021/12/10 06:43:23;;;;;;;6.47;5.90;;;;;;;;;;5111046;28;20249;-64
2021/12/10 06:46:10;;;;;;;6.80;6.20;;;;;;;;;;5111260;28;20312;-64
2021/12/10 06:48:57;;;;;;;6.90;6.30;;;;;;;;;;5110180;28;20303;-64
2021/12/10 06:51:46;;;;;;;6.87;6.27;;;;;;;;;;5111342;28;20224;-64
2021/12/10 06:54:33;;;;;;;6.73;6.10;;;;;;;;;;5110500;28;20206;-64
2021/12/10 06:57:20;;;;;;;6.37;5.77;;;;;;;;;;5110439;28;20713;-64
2021/12/10 07:00:09;;;;;;;6.93;6.33;;;;;;;;;;5108978;28;20215;-64
2021/12/10 07:02:56;;;;;;;6.60;6.10;;;;;;;;;;5106203;28;20290;-64
2021/12/10 07:05:43;;;;;;;6.30;5.80;;;;;;;;;;5104881;28;20745;-64
2021/12/10 07:08:35;;;;;;;6.60;6.10;;;;;;;;;;5110390;28;20680;-64
2021/12/10 07:11:23;;;;;;;6.40;5.90;;;;;;;;;;5109693;28;20194;-64
2021/12/10 07:14:10;;;;;;;6.30;5.80;;;;;;;;;;5111047;28;20634;-64
2021/12/10 07:16:57;;;;;;;6.87;6.20;;;;;;;;;;5109216;28;20259;-64
2021/12/10 07:19:44;;;;;;;6.77;6.17;;;;;;;;;;5111099;28;20285;-64
2021/12/10 07:22:31;;;;;;;6.07;5.57;;;;;;;;;;5107395;28;20661;-64
2021/12/10 07:25:21;;;;;;;6.47;5.97;;;;;;;;;;5106147;28;20205;-64
2021/12/10 07:28:08;;;;;;;5.93;5.53;;;;;;;;;;5111232;28;20198;-64
2021/12/10 07:30:55;;;;;;;5.83;5.33;;;;;;;;;;5109245;28;20294;-64
2021/12/10 07:33:42;;;;;;;6.23;5.63;;;;;;;;;;5105127;28;20668;-64
2021/12/10 07:36:29;;;;;;;6.03;5.63;;;;;;;;;;5101615;28;20285;-64
2021/12/10 07:39:17;;;;;;;6.40;5.90;;;;;;;;;;5100106;28;20234;-64
2021/12/10 07:42:07;;;;;;;6.03;5.53;;;;;;;;;;5089806;28;20238;-64
2021/12/10 07:44:56;;;;;;;6.20;5.70;;;;;;;;;;5089592;28;20229;-66
2021/12/10 07:47:43;;;;;;;6.40;5.80;;;;;;;;;;5090612;28;20195;-64
2021/12/10 07:50:34;;;;;;;6.17;5.73;;;;;;;;;;5103855;28;20256;-65
2021/12/10 07:53:22;;;;;;;5.83;5.43;;;;;;;;;;5090435;28;20644;-64
2021/12/10 07:56:11;;;;;;;6.60;6.10;;;;;;;;;;5104075;28;20677;-64
2021/12/10 07:59:00;;;;;;;6.83;6.20;;;;;;;;;;5095918;28;20199;-64
2021/12/10 08:01:47;;;;;;;6.80;6.20;;;;;;;;;;5090107;28;20664;-64
2021/12/10 08:04:34;;;;;;;6.67;5.80;;;;;;;;;;5107103;28;20717;-64
2021/12/10 08:07:21;;;;;;;6.77;6.17;;;;;;;;;;5099295;28;20755;-64
2021/12/10 08:10:10;;;;;;;7.67;6.97;;;;;;;;;;5103845;28;20207;-64
2021/12/10 08:12:57;;;;;;;7.73;6.97;;;;;;;;;;5097156;28;20250;-64
2021/12/10 08:15:46;;;;;;;7.43;6.63;;;;;;;;;;5098544;28;20285;-64
2021/12/10 08:18:33;;;;;;;7.77;7.07;;;;;;;;;;5098643;28;20209;-64
2021/12/10 08:21:20;;;;;;;8.17;7.37;;;;;;;;;;5096028;28;20264;-64
2021/12/10 08:24:07;;;;;;;7.63;6.93;;;;;;;;;;5105994;28;20802;-64
2021/12/10 08:26:54;;;;;;;7.43;6.73;;;;;;;;;;5105379;28;20721;-65
2021/12/10 08:29:43;;;;;;;7.80;7.00;;;;;;;;;;5105409;28;20206;-64
2021/12/10 08:32:33;;;;;;;7.40;6.70;;;;;;;;;;5109564;28;20546;-64
2021/12/10 08:35:23;;;;;;;8.23;7.20;;;;;;;;;;5108792;28;20288;-64
2021/12/10 08:38:11;;;;;;;7.47;6.83;;;;;;;;;;5106377;28;20814;-64
2021/12/10 08:41:03;;;;;;;7.53;6.93;;;;;;;;;;5103792;28;20280;-64
2021/12/10 08:43:50;;;;;;;8.37;7.57;;;;;;;;;;5103016;28;20626;-64
2021/12/10 08:46:41;;;;;;;8.13;7.43;;;;;;;;;;5106679;28;20207;-64
2021/12/10 08:49:29;;;;;;;8.10;7.40;;;;;;;;;;5093886;28;20226;-64
2021/12/10 08:52:19;;;;;;;9.73;7.53;;;;;;;;;;5107903;28;20673;-64
2021/12/10 08:55:06;;;;;;;7.73;7.03;;;;;;;;;;5108525;28;20203;-64
2021/12/10 08:57:54;;;;;;;7.97;7.27;;;;;;;;;;5108859;28;20264;-64
2021/12/10 09:00:44;;;;;;;7.90;7.20;;;;;;;;;;5108275;28;20221;-64
2021/12/10 09:03:32;;;;;;;7.70;7.00;;;;;;;;;;5105468;28;20229;-64
2021/12/10 09:06:24;;;;;;;7.90;7.23;;;;;;;;;;5108931;28;20736;-64
2021/12/10 09:09:14;;;;;;;7.53;6.63;;;;;;;;;;5109227;28;20700;-65
2021/12/10 09:12:07;;;;;;;6.63;6.13;;;;;;;;;;5098058;28;20743;-64
2021/12/10 09:14:57;;;;;;;7.13;6.53;;;;;;;;;;5089485;28;20290;-65
2021/12/10 09:17:46;;;;;;;7.43;6.73;;;;;;;;;;5089410;28;20728;-64
2021/12/10 09:20:38;;;;;;;7.30;6.70;;;;;;;;;;5088008;28;20233;-64
2021/12/10 09:23:28;;;;;;;6.87;6.30;;;;;;;;;;5090753;28;20211;-64
2021/12/10 09:26:17;;;;;;;7.07;6.47;;;;;;;;;;5092378;28;21057;-64
2021/12/10 09:29:09;;;;;;;6.50;6.00;;;;;;;;;;5092853;28;20293;-64
2021/12/10 09:31:56;;;;;;;6.40;5.90;;;;;;;;;;5093418;28;20206;-64
2021/12/10 09:34:45;;;;;;;6.17;5.67;;;;;;;;;;5092406;28;20289;-64
2021/12/10 09:37:32;;;;;;;6.47;5.87;;;;;;;;;;5091551;28;20254;-64
2021/12/10 09:40:24;;;;;;;6.30;5.77;;;;;;;;;;5092942;28;20788;-65
2021/12/10 09:43:12;;;;;;;6.00;5.50;;;;;;;;;;5108413;28;20221;-65
2021/12/10 09:46:00;;;;;;;6.23;5.73;;;;;;;;;;5113143;28;20204;-65
2021/12/10 09:48:48;;;;;;;6.03;5.53;;;;;;;;;;5111599;28;20754;-64
2021/12/10 09:51:38;;;;;;;5.57;5.07;;;;;;;;;;5092930;28;20287;-64
2021/12/10 09:54:27;;;;;;;6.37;5.80;;;;;;;;;;5093259;28;20240;-64
2021/12/10 09:57:19;;;;;;;5.23;4.83;;;;;;;;;;5100133;28;20327;-65
2021/12/10 10:00:12;;;;;;;5.10;4.70;;;;;;;;;;5095826;28;20227;-64
2021/12/10 10:03:00;;;;;;;5.33;4.93;;;;;;;;;;5099919;28;20682;-65
2021/12/10 10:05:47;;;;;;;5.60;5.20;;;;;;;;;;5108964;28;20233;-64
2021/12/10 10:08:35;;;;;;;5.17;4.77;;;;;;;;;;5109496;28;20207;-64
2021/12/10 10:11:25;;;;;;;5.03;4.63;;;;;;;;;;5111265;28;20207;-64
2021/12/10 10:14:14;;;;;;;5.00;4.60;;;;;;;;;;5111869;28;20259;-64
2021/12/10 10:17:01;;;;;;;5.00;4.70;;;;;;;;;;5112365;28;20655;-64
2021/12/10 10:19:49;;;;;;;4.70;4.40;;;;;;;;;;5111886;28;20203;-64
2021/12/10 10:22:36;;;;;;;4.80;4.50;;;;;;;;;;5111701;28;20320;-64
2021/12/10 10:25:26;;;;;;;4.80;4.50;;;;;;;;;;5111820;28;20282;-64
2021/12/10 10:28:15;;;;;;;4.50;4.20;;;;;;;;;;5112228;28;20205;-64
2021/12/10 10:31:09;;;;;;;4.40;4.10;;;;;;;;;;5111661;28;20199;-64
2021/12/10 10:33:58;;;;;;;4.40;4.10;;;;;;;;;;5111375;28;20626;-64
2021/12/10 10:36:46;;;;;;;4.87;4.57;;;;;;;;;;5111586;28;20228;-65
2021/12/10 10:39:36;;;;;;;4.93;4.50;;;;;;;;;;5111483;28;20288;-64
2021/12/10 10:42:26;;;;;;;4.40;4.10;;;;;;;;;;5111458;28;20198;-64
2021/12/10 10:45:20;;;;;;;4.10;3.90;;;;;;;;;;5111688;28;20302;-64
2021/12/10 10:48:08;;;;;;;4.23;3.93;;;;;;;;;;5111864;28;20208;-64
2021/12/10 10:50:58;;;;;;;4.17;3.87;;;;;;;;;;5111047;28;20331;-64
2021/12/10 10:53:50;;;;;;;4.07;3.77;;;;;;;;;;5111775;28;20218;-64
2021/12/10 10:56:40;;;;;;;3.80;3.60;;;;;;;;;;5110410;28;20229;-66
2021/12/10 10:59:28;;;;;;;3.93;3.63;;;;;;;;;;5111620;28;20660;-65
2021/12/10 11:02:15;;;;;;;3.40;3.20;;;;;;;;;;5109758;28;20211;-64
2021/12/10 11:05:10;;;;;;;3.83;3.53;;;;;;;;;;5105894;28;20234;-65
2021/12/10 11:08:00;;;;;;;3.70;3.50;;;;;;;;;;5109320;28;20564;-64
2021/12/10 11:10:47;;;;;;;3.97;3.67;;;;;;;;;;5109881;28;20328;-64
2021/12/10 11:13:34;;;;;;;3.63;3.43;;;;;;;;;;5104521;28;20205;-64
2021/12/10 11:16:23;;;;;;;3.50;3.30;;;;;;;;;;5095191;28;20279;-64
2021/12/10 11:19:12;;;;;;;3.70;3.40;;;;;;;;;;5093866;28;20258;-65
2021/12/10 11:22:04;;;;;;;4.10;3.80;;;;;;;;;;5092827;28;20769;-64
2021/12/10 11:24:56;;;;;;;3.60;3.40;;;;;;;;;;5089946;28;20621;-65
2021/12/10 11:27:45;;;;;;;3.43;3.23;;;;;;;;;;5088868;28;20195;-64
2021/12/10 11:30:32;;;;;;;3.50;3.30;;;;;;;;;;5087526;28;20231;-64
2021/12/10 11:33:23;;;;;;;3.40;3.20;;;;;;;;;;5090035;28;20269;-65
2021/12/10 11:36:13;;;;;;;3.27;3.07;;;;;;;;;;5089620;28;20629;-65
2021/12/10 11:39:02;;;;;;;3.23;3.03;;;;;;;;;;5086440;28;20226;-65
2021/12/10 11:41:49;;;;;;;3.27;3.07;;;;;;;;;;5068296;28;20581;-66
2021/12/10 11:45:04;;;;;;;3.13;2.93;;;;;;;;;;5069358;28;20805;-64
2021/12/10 11:47:54;;;;;;;3.50;3.30;;;;;;;;;;5068388;28;20196;-64
2021/12/10 11:50:45;;;;;;;2.80;2.70;;;;;;;;;;5082572;28;20210;-64
2021/12/10 11:53:45;;;;;;;3.30;3.10;;;;;;;;;;5088183;28;20202;-65
2021/12/10 11:56:36;;;;;;;3.30;3.10;;;;;;;;;;5088735;28;20355;-64
2021/12/10 11:59:27;;;;;;;3.30;3.10;;;;;;;;;;5089878;28;20301;-64
2021/12/10 12:02:16;;;;;;;3.17;2.97;;;;;;;;;;5086333;28;20216;-65
2021/12/10 12:05:09;;;;;;;3.27;3.07;;;;;;;;;;5085500;28;20240;-66
2021/12/10 12:07:58;;;;;;;3.00;2.90;;;;;;;;;;5078975;28;20667;-64
2021/12/10 12:10:47;;;;;;;3.17;2.97;;;;;;;;;;5084459;28;20821;-64
2021/12/10 12:13:41;;;;;;;3.77;2.93;;;;;;;;;;5079364;28;20246;-65
2021/12/10 12:16:28;;;;;;;3.20;3.10;;;;;;;;;;5081848;28;20689;-64
2021/12/10 12:19:15;;;;;;;3.10;2.90;;;;;;;;;;5083304;28;20257;-64
2021/12/10 12:25:27;;;;;;;3.03;2.93;;;;;;;;;;5054983;28;20216;-65
2021/12/10 12:28:17;;;;;;;3.30;3.10;;;;;;;;;;5090066;28;20198;-64
2021/12/10 12:31:10;;;;;;;3.20;3.00;;;;;;;;;;5090836;28;20195;-65
2021/12/10 12:34:04;;;;;;;3.00;2.80;;;;;;;;;;5089864;28;20262;-64
2021/12/10 12:36:58;;;;;;;2.80;2.70;;;;;;;;;;5091544;28;20206;-64
2021/12/10 12:39:47;;;;;;;2.80;2.70;;;;;;;;;;5091525;28;20282;-65
2021/12/10 12:42:36;;;;;;;3.10;2.90;;;;;;;;;;5088988;28;20289;-65
2021/12/10 12:45:26;;;;;;;3.03;2.83;;;;;;;;;;5088144;28;20210;-64
2021/12/10 12:48:15;;;;;;;3.30;3.10;;;;;;;;;;5098873;28;20209;-64
2021/12/10 12:51:11;;;;;;;3.10;2.90;;;;;;;;;;5111946;28;20329;-64
2021/12/10 12:53:58;;;;;;;3.10;2.90;;;;;;;;;;5110203;28;20203;-64
2021/12/10 12:56:45;;;;;;;2.80;2.70;;;;;;;;;;5093680;28;20230;-65
2021/12/10 12:59:32;;;;;;;3.30;3.10;;;;;;;;;;5093737;28;20359;-64
2021/12/10 13:02:23;;;;;;;3.10;2.90;;;;;;;;;;5109731;28;20238;-64
2021/12/10 13:05:12;;;;;;;2.80;2.70;;;;;;;;;;5111668;28;20238;-64
2021/12/10 13:08:08;;;;;;;2.70;2.60;;;;;;;;;;5113188;28;20198;-64
2021/12/10 13:11:10;;;;;;;2.90;2.70;;;;;;;;;;5113258;28;20205;-65
2021/12/10 13:14:11;;;;;;;2.83;2.70;;;;;;;;;;5113791;28;20210;-64
2021/12/10 13:17:09;;;;;;;2.83;2.67;;;;;;;;;;5112262;28;20197;-64
2021/12/10 13:19:56;;;;;;;3.80;3.40;;;;;;;;;;5113116;28;20242;-64
2021/12/10 13:22:44;;;;;;;3.73;3.43;;;;;;;;;;5093132;28;20693;-64
2021/12/10 13:25:33;;;;;;;3.87;3.57;;;;;;;;;;5074341;28;20290;-64
2021/12/10 13:28:20;;;;;;;3.47;3.17;;;;;;;;;;5072308;28;20770;-64
2021/12/10 13:31:11;;;;;;;3.23;3.03;;;;;;;;;;5072675;28;20247;-64
2021/12/10 13:33:58;;;;;;;3.30;3.10;;;;;;;;;;5072474;28;20237;-64
2021/12/10 13:36:45;;;;;;;3.47;3.27;;;;;;;;;;5085496;28;20203;-65
2021/12/10 13:39:35;;;;;;;3.20;3.00;;;;;;;;;;5072647;28;20258;-65
2021/12/10 13:42:22;;;;;;;3.90;3.33;;;;;;;;;;5076251;28;20660;-65
2021/12/10 13:45:10;;;;;;;3.50;3.30;;;;;;;;;;5088903;28;20321;-64
2021/12/10 13:48:03;;;;;;;3.50;3.30;;;;;;;;;;5090980;28;20556;-65
2021/12/10 13:50:53;;;;;;;3.47;3.27;;;;;;;;;;5078782;28;20203;-64
2021/12/10 13:53:41;;;;;;;3.20;3.00;;;;;;;;;;5087000;28;20235;-64
2021/12/10 13:56:30;;;;;;;3.60;3.40;;;;;;;;;;5071417;28;20578;-64
2021/12/10 13:59:23;;;;;;;3.93;3.73;;;;;;;;;;5073932;28;20255;-64
2021/12/10 14:02:11;;;;;;;3.97;3.67;;;;;;;;;;5071525;28;20571;-65
2021/12/10 14:04:59;;;;;;;3.73;3.53;;;;;;;;;;5085121;28;20706;-64
2021/12/10 14:07:53;;;;;;;3.63;3.33;;;;;;;;;;5085185;28;20212;-65
2021/12/10 14:10:43;;;;;;;3.80;3.60;;;;;;;;;;5080197;28;20203;-64
2021/12/10 14:13:34;;;;;;;3.40;3.20;;;;;;;;;;5084849;28;20280;-64
2021/12/10 14:16:47;;;;;;;3.67;3.47;;;;;;;;;;5103099;28;20384;-64
2021/12/10 14:19:39;;;;;;;3.57;3.30;;;;;;;;;;5071374;28;20292;-64
2021/12/10 14:22:46;;;;;;;3.43;3.23;;;;;;;;;;5091366;28;20211;-64
2021/12/10 14:25:36;;;;;;;3.43;3.23;;;;;;;;;;5128596;27;20349;-64
2021/12/10 14:28:35;;;;;;;3.23;3.03;;;;;;;;;;5132227;27;20661;-65
2021/12/10 14:31:28;;;;;;;3.23;3.03;;;;;;;;;;5132139;27;20286;-64
2021/12/10 14:34:19;;;;;;;3.33;3.13;;;;;;;;;;5132890;27;20225;-65
2021/12/10 14:37:09;;;;;;;3.30;3.10;;;;;;;;;;5131773;27;20208;-64
2021/12/10 14:40:07;;;;;;;3.20;3.00;;;;;;;;;;5094631;28;20225;-64
2021/12/10 14:43:13;;;;;;;3.13;2.83;;;;;;;;;;5111012;28;20284;-65
2021/12/10 14:46:12;;;;;;;3.20;3.00;;;;;;;;;;5110829;28;20199;-64
2021/12/10 14:49:05;;;;;;;3.10;2.90;;;;;;;;;;5096800;27;20245;-64
2021/12/10 14:52:15;;;;;;;3.10;2.90;;;;;;;;;;5112134;28;20289;-64
2021/12/10 14:55:09;;;;;;;3.10;2.90;;;;;;;;;;5111631;28;20250;-64
2021/12/10 14:57:59;;;;;;;3.13;2.93;;;;;;;;;;5110961;28;20202;-64
2021/12/10 15:00:51;;;;;;;3.27;3.07;;;;;;;;;;5111570;28;20314;-64
2021/12/10 15:03:43;;;;;;;3.27;3.07;;;;;;;;;;5110028;28;20237;-65
2021/12/10 15:06:31;;;;;;;2.67;2.57;;;;;;;;;;5110863;28;20281;-64
2021/12/10 15:09:18;;;;;;;3.30;3.10;;;;;;;;;;5111684;28;20255;-64
2021/12/10 15:12:09;;;;;;;2.80;2.70;;;;;;;;;;5090538;28;20227;-65
2021/12/10 15:14:59;;;;;;;3.20;3.00;;;;;;;;;;5089606;28;20500;-64
2021/12/10 15:17:46;;;;;;;3.10;2.90;;;;;;;;;;5107633;28;20642;-64
2021/12/10 15:20:34;;;;;;;3.00;2.90;;;;;;;;;;5100722;28;20234;-64
2021/12/10 15:23:21;;;;;;;2.87;2.77;;;;;;;;;;5107136;28;20289;-65
2021/12/10 15:26:09;;;;;;;2.70;2.60;;;;;;;;;;5088983;28;20679;-64
2021/12/10 15:28:56;;;;;;;3.07;2.87;;;;;;;;;;5090353;28;20210;-65
2021/12/10 15:31:44;;;;;;;3.07;2.93;;;;;;;;;;5103503;28;20211;-64
2021/12/10 15:34:37;;;;;;;3.10;2.90;;;;;;;;;;5106435;28;20814;-64
2021/12/10 15:37:28;;;;;;;2.70;2.60;;;;;;;;;;5110203;28;20289;-64
2021/12/10 15:40:24;;;;;;;3.10;2.90;;;;;;;;;;5109266;28;20859;-64
2021/12/10 15:43:15;;;;;;;2.97;2.80;;;;;;;;;;5111278;28;20533;-65
2021/12/10 15:46:06;;;;;;;3.10;2.97;;;;;;;;;;5098944;28;20239;-64
2021/12/10 15:48:56;;;;;;;3.00;2.80;;;;;;;;;;5097388;28;20285;-64
2021/12/10 15:51:46;;;;;;;2.80;2.70;;;;;;;;;;5089329;28;20203;-64
2021/12/10 15:54:39;;;;;;;2.83;2.73;;;;;;;;;;5091029;28;20213;-64
2021/12/10 15:57:30;;;;;;;2.77;2.57;;;;;;;;;;5089195;28;20299;-65
2021/12/10 16:00:21;;;;;;;4.43;2.60;;;;;;;;;;5097177;28;20320;-65
2021/12/10 16:03:10;;;;;;;3.23;3.03;;;;;;;;;;5094299;28;20282;-64
2021/12/10 16:06:00;;;;;;;2.70;2.60;;;;;;;;;;5109220;28;20210;-64
2021/12/10 16:08:51;;;;;;;3.07;2.87;;;;;;;;;;5110045;28;20276;-64
2021/12/10 16:11:39;;;;;;;2.70;2.60;;;;;;;;;;5093459;28;20697;-64
2021/12/10 16:14:29;;;;;;;3.00;2.80;;;;;;;;;;5095272;28;20254;-65
2021/12/10 16:17:18;;;;;;;3.00;2.80;;;;;;;;;;5106043;28;20213;-65
2021/12/10 16:20:12;;;;;;;2.83;2.73;;;;;;;;;;5097037;28;20218;-64
2021/12/10 16:23:00;;;;;;;2.60;2.50;;;;;;;;;;5084817;28;20265;-64
2021/12/10 16:25:47;;;;;;;2.77;2.57;;;;;;;;;;5074582;28;20257;-64
2021/12/10 16:28:36;;;;;;;2.60;2.50;;;;;;;;;;5082662;28;20201;-64
2021/12/10 16:31:26;;;;;;;2.77;2.67;;;;;;;;;;5096254;28;20199;-64
2021/12/10 16:34:17;;;;;;;2.80;2.70;;;;;;;;;;5083117;28;20206;-64
2021/12/10 16:37:07;;;;;;;2.47;2.37;;;;;;;;;;5090752;28;20257;-64
2021/12/10 16:39:54;;;;;;;2.40;2.30;;;;;;;;;;5080062;28;20314;-64
2021/12/10 16:42:46;;;;;;;3.00;2.80;;;;;;;;;;5083764;28;20207;-64
2021/12/10 16:45:36;;;;;;;2.57;2.47;;;;;;;;;;5076520;28;20252;-64
2021/12/10 16:48:25;;;;;;;2.63;2.53;;;;;;;;;;5085389;28;20735;-65
2021/12/10 16:51:16;;;;;;;2.70;2.60;;;;;;;;;;5090466;28;20235;-64
2021/12/10 16:54:07;;;;;;;2.77;2.67;;;;;;;;;;5089587;28;20268;-65
2021/12/10 16:56:58;;;;;;;2.70;2.60;;;;;;;;;;5087205;28;20328;-65
2021/12/10 16:59:46;;;;;;;2.70;2.60;;;;;;;;;;5090325;28;20233;-64
2021/12/10 17:02:35;;;;;;;2.70;2.60;;;;;;;;;;5086148;28;20532;-64
2021/12/10 17:05:27;;;;;;;2.53;2.43;;;;;;;;;;5084358;28;20233;-65
2021/12/10 17:08:18;;;;;;;2.33;2.23;;;;;;;;;;5086276;28;20289;-64
2021/12/10 17:11:08;;;;;;;2.77;2.67;;;;;;;;;;5091076;28;20287;-65